Time;durP1;ratioP1;P1;durP2;ratioP2;P2;SDS_P1;SDS_P2;PMS_P1;PMS_P2;Temp;Humidity;BMP_temperature;BMP_pressure;BME280_temperature;BME280_humidity;BME280_pressure;Samples;Min_cycle;Max_cycle;Signal;HPM_P1;HPM_P2
2022/07/09 00:01:23;;;;;;;4.60;1.80;;;17.50;83.80;;;;;;6861976;28;20531;-79
2022/07/09 00:04:45;;;;;;;6.22;1.90;;;17.30;83.90;;;;;;6860259;28;20471;-77
2022/07/09 00:08:07;;;;;;;5.93;1.90;;;17.20;84.50;;;;;;6862557;28;20478;-78
2022/07/09 00:11:29;;;;;;;4.68;1.88;;;17.10;85.10;;;;;;6861932;28;20922;-78
2022/07/09 00:14:52;;;;;;;6.43;1.90;;;17.00;85.50;;;;;;6862137;28;20490;-78
2022/07/09 00:18:14;;;;;;;5.85;1.85;;;17.10;85.90;;;;;;6861288;28;20484;-78
2022/07/09 00:21:36;;;;;;;5.60;2.10;;;17.10;85.50;;;;;;6862078;28;20436;-80
2022/07/09 00:24:58;;;;;;;4.27;1.97;;;17.10;86.40;;;;;;6861152;28;20898;-78
2022/07/09 00:28:20;;;;;;;5.70;2.03;;;17.10;86.20;;;;;;6861231;28;20488;-78
2022/07/09 00:31:45;;;;;;;4.93;1.90;;;17.10;86.40;;;;;;6861568;28;20440;-80
2022/07/09 00:35:08;;;;;;;8.68;2.25;;;17.00;86.20;;;;;;6861478;28;20451;-79
2022/07/09 00:38:30;;;;;;;5.90;2.10;;;16.90;86.60;;;;;;6859603;28;20451;-78
2022/07/09 00:42:02;;;;;;;5.40;1.95;;;16.70;86.70;;;;;;6861782;28;20475;-79
2022/07/09 00:45:24;;;;;;;5.80;2.00;;;16.60;87.60;;;;;;6861028;28;20483;-76
2022/07/09 00:48:48;;;;;;;5.17;1.80;;;16.60;87.70;;;;;;6859154;28;20897;-79
2022/07/09 00:52:14;;;;;;;5.03;1.70;;;16.60;87.40;;;;;;6860344;28;20432;-78
2022/07/09 00:55:36;;;;;;;5.28;2.10;;;16.70;87.50;;;;;;6859913;28;20451;-79
2022/07/09 00:58:59;;;;;;;5.60;1.83;;;16.60;87.80;;;;;;6860271;28;20941;-77
2022/07/09 01:02:23;;;;;;;5.00;1.83;;;16.70;88.30;;;;;;6887523;28;20978;-77
2022/07/09 01:05:47;;;;;;;5.37;1.90;;;16.70;88.30;;;;;;6887621;28;20434;-78
2022/07/09 01:09:10;;;;;;;6.77;2.10;;;16.70;88.20;;;;;;6876355;28;20475;-77
2022/07/09 01:12:33;;;;;;;4.75;1.77;;;16.60;88.40;;;;;;6859269;28;20436;-79
2022/07/09 01:15:55;;;;;;;5.07;2.10;;;16.60;87.90;;;;;;6858944;28;20448;-78
2022/07/09 01:19:17;;;;;;;5.30;1.75;;;16.60;88.50;;;;;;6859543;28;20438;-78
2022/07/09 01:22:41;;;;;;;6.13;1.80;;;16.50;89.10;;;;;;6864641;28;20503;-79
2022/07/09 01:26:04;;;;;;;4.55;2.10;;;16.30;89.30;;;;;;6877152;28;20443;-78
2022/07/09 01:29:26;;;;;;;3.97;1.70;;;16.20;90.00;;;;;;6860234;28;20435;-79
2022/07/09 01:32:49;;;;;;;4.85;1.92;;;16.30;90.10;;;;;;6858916;28;20440;-78
2022/07/09 01:36:12;;;;;;;4.25;1.88;;;16.20;90.10;;;;;;6855017;28;20455;-77
2022/07/09 01:39:49;;;;;;;4.73;1.80;;;16.30;90.20;;;;;;6858483;28;20478;-79
2022/07/09 01:43:13;;;;;;;5.43;2.03;;;16.30;89.80;;;;;;6858108;28;20452;-78
2022/07/09 01:46:35;;;;;;;5.70;1.80;;;16.30;90.00;;;;;;6833112;29;20485;-78
2022/07/09 01:49:57;;;;;;;4.50;2.00;;;16.30;90.10;;;;;;6846907;28;20894;-78
2022/07/09 01:53:19;;;;;;;4.75;1.80;;;16.20;90.30;;;;;;6859777;28;20479;-78
2022/07/09 01:56:42;;;;;;;4.80;1.98;;;16.10;90.40;;;;;;6858703;28;20487;-78
2022/07/09 02:00:07;;;;;;;4.63;2.00;;;16.10;90.70;;;;;;6858879;28;20542;-79
2022/07/09 02:03:30;;;;;;;7.10;1.98;;;16.10;90.50;;;;;;6858677;28;20467;-78
2022/07/09 02:06:52;;;;;;;7.55;2.28;;;16.10;90.00;;;;;;6859290;28;20845;-77
2022/07/09 02:10:14;;;;;;;6.88;2.22;;;16.00;89.20;;;;;;6859343;28;20484;-79
2022/07/09 02:13:37;;;;;;;5.65;1.80;;;16.10;90.00;;;;;;6859438;28;20478;-79
2022/07/09 02:16:59;;;;;;;6.00;2.00;;;16.10;90.40;;;;;;6857312;28;20443;-75
2022/07/09 02:20:22;;;;;;;5.90;2.00;;;16.00;90.40;;;;;;6858411;28;20845;-78
2022/07/09 02:23:45;;;;;;;4.78;1.85;;;15.90;90.60;;;;;;6857776;28;20459;-79
2022/07/09 02:27:07;;;;;;;4.75;2.10;;;15.90;91.00;;;;;;6859240;28;20490;-79
2022/07/09 02:30:31;;;;;;;4.82;2.00;;;15.70;91.10;;;;;;6857785;28;20542;-78
2022/07/09 02:33:53;;;;;;;4.53;1.73;;;15.70;91.20;;;;;;6857901;28;20581;-79
2022/07/09 02:37:15;;;;;;;4.80;2.05;;;15.80;91.20;;;;;;6851637;28;20482;-79
2022/07/09 02:40:37;;;;;;;4.90;2.00;;;15.80;91.60;;;;;;6858086;28;20446;-77
2022/07/09 02:43:59;;;;;;;4.97;1.95;;;15.70;91.20;;;;;;6859093;28;20483;-76
2022/07/09 02:47:23;;;;;;;4.35;2.08;;;15.60;91.40;;;;;;6856598;28;20910;-79
2022/07/09 02:50:45;;;;;;;5.13;1.97;;;15.60;91.60;;;;;;6858837;28;20592;-80
2022/07/09 02:54:07;;;;;;;5.18;2.10;;;15.50;91.60;;;;;;6858269;28;20546;-78
2022/07/09 02:57:29;;;;;;;4.38;1.90;;;15.50;91.70;;;;;;6859234;28;20470;-80
2022/07/09 03:00:51;;;;;;;4.57;1.90;;;15.40;92.10;;;;;;6860242;28;20476;-80
2022/07/09 03:04:14;;;;;;;5.70;2.20;;;15.40;91.90;;;;;;6862323;28;20443;-78
2022/07/09 03:07:37;;;;;;;5.75;2.00;;;15.40;92.10;;;;;;6862829;28;20526;-79
2022/07/09 03:10:59;;;;;;;4.90;2.00;;;15.30;92.10;;;;;;6863979;28;20439;-80
2022/07/09 03:14:21;;;;;;;4.82;1.95;;;15.20;92.10;;;;;;6862551;28;20447;-78
2022/07/09 03:17:43;;;;;;;4.70;2.00;;;15.20;92.40;;;;;;6862912;28;20478;-80
2022/07/09 03:21:08;;;;;;;3.85;1.80;;;15.10;92.50;;;;;;6863272;28;20443;-79
2022/07/09 03:24:31;;;;;;;4.50;2.00;;;14.90;92.70;;;;;;6862200;28;20810;-80
2022/07/09 03:27:53;;;;;;;4.53;1.83;;;14.80;92.90;;;;;;6862490;28;20447;-77
2022/07/09 03:31:15;;;;;;;3.58;1.70;;;14.80;93.20;;;;;;6862951;28;20447;-79
2022/07/09 03:34:37;;;;;;;5.65;2.10;;;14.90;93.10;;;;;;6863260;28;20929;-77
2022/07/09 03:38:00;;;;;;;4.47;1.83;;;14.90;93.00;;;;;;6862560;28;20440;-78
2022/07/09 03:41:22;;;;;;;4.68;2.00;;;15.00;93.10;;;;;;6863034;28;20873;-80
2022/07/09 03:44:44;;;;;;;4.50;2.00;;;15.10;93.00;;;;;;6859691;28;20471;-78
2022/07/09 03:48:08;;;;;;;4.13;2.00;;;15.00;93.10;;;;;;6861164;28;20546;-78
2022/07/09 03:51:30;;;;;;;5.70;2.37;;;14.90;93.10;;;;;;6836275;28;20473;-79
2022/07/09 03:54:53;;;;;;;5.07;2.10;;;14.80;93.10;;;;;;6837487;28;20494;-77
2022/07/09 03:58:15;;;;;;;6.05;2.30;;;14.90;93.10;;;;;;6862634;28;20436;-80
2022/07/09 04:01:37;;;;;;;6.15;2.28;;;15.00;93.00;;;;;;6861422;28;20475;-79
2022/07/09 04:04:59;;;;;;;4.97;2.30;;;15.00;92.80;;;;;;6861908;28;20468;-80
2022/07/09 04:08:21;;;;;;;5.95;2.30;;;15.00;92.70;;;;;;6859451;28;20478;-80
2022/07/09 04:11:45;;;;;;;5.57;2.22;;;15.00;92.50;;;;;;6860524;28;20468;-80
2022/07/09 04:15:07;;;;;;;6.50;2.60;;;15.00;92.50;;;;;;6862459;28;20490;-78
2022/07/09 04:18:29;;;;;;;5.93;2.13;;;15.00;92.70;;;;;;6860044;28;20767;-79
2022/07/09 04:21:51;;;;;;;4.70;2.03;;;15.10;92.50;;;;;;6862248;28;20439;-80
2022/07/09 04:25:13;;;;;;;5.82;2.20;;;15.10;92.80;;;;;;6860696;28;20459;-79
2022/07/09 04:28:38;;;;;;;6.13;2.30;;;15.10;92.80;;;;;;6861832;28;20442;-79
2022/07/09 04:32:00;;;;;;;5.40;2.20;;;15.20;93.60;;;;;;6855981;28;20582;-78
2022/07/09 04:35:22;;;;;;;4.75;2.05;;;15.20;93.10;;;;;;6859676;28;20440;-79
2022/07/09 04:38:44;;;;;;;4.65;2.00;;;15.10;93.20;;;;;;6852980;28;20444;-78
2022/07/09 04:42:07;;;;;;;5.10;2.15;;;15.00;93.50;;;;;;6861437;28;20940;-81
2022/07/09 04:45:31;;;;;;;8.27;2.38;;;15.00;93.40;;;;;;6860881;28;20794;-76
2022/07/09 04:48:53;;;;;;;5.30;2.10;;;15.10;93.20;;;;;;6864467;28;20484;-80
2022/07/09 04:52:17;;;;;;;4.73;2.13;;;15.20;93.20;;;;;;6839092;28;20470;-80
2022/07/09 04:55:39;;;;;;;5.30;2.00;;;15.20;92.90;;;;;;6856595;28;20919;-78
2022/07/09 04:59:02;;;;;;;5.70;2.10;;;15.20;93.20;;;;;;6856728;28;20581;-78
2022/07/09 05:02:26;;;;;;;4.97;2.27;;;15.30;93.30;;;;;;6847562;28;20482;-79
2022/07/09 05:05:48;;;;;;;5.40;2.28;;;15.30;93.20;;;;;;6874232;28;20957;-78
2022/07/09 05:09:10;;;;;;;6.47;2.17;;;15.30;93.40;;;;;;6859843;28;20934;-78
2022/07/09 05:12:32;;;;;;;5.90;2.45;;;15.40;93.40;;;;;;6860021;28;20464;-79
2022/07/09 05:15:54;;;;;;;5.88;2.50;;;15.30;93.30;;;;;;6859590;28;20444;-80
2022/07/09 05:19:17;;;;;;;5.70;2.20;;;15.40;93.40;;;;;;6863078;28;20510;-78
2022/07/09 05:22:39;;;;;;;8.32;2.45;;;15.40;93.50;;;;;;6861729;28;20979;-80
2022/07/09 05:26:02;;;;;;;6.63;2.30;;;15.50;93.20;;;;;;6857062;28;20944;-80
2022/07/09 05:29:25;;;;;;;6.03;2.15;;;15.50;93.20;;;;;;6858495;28;20446;-77
2022/07/09 05:32:47;;;;;;;6.00;2.30;;;15.50;93.30;;;;;;6860037;28;20446;-80
2022/07/09 05:36:11;;;;;;;5.10;2.40;;;15.60;93.20;;;;;;6859386;28;20495;-76
2022/07/09 05:39:33;;;;;;;6.00;2.30;;;15.60;93.30;;;;;;6856395;28;20478;-79
2022/07/09 05:42:55;;;;;;;5.10;2.05;;;15.60;93.50;;;;;;6858845;28;20447;-78
2022/07/09 05:46:17;;;;;;;5.23;2.30;;;15.60;93.40;;;;;;6857516;28;20866;-76
2022/07/09 05:49:39;;;;;;;6.20;2.28;;;15.70;93.80;;;;;;6857720;28;20432;-79
2022/07/09 05:53:02;;;;;;;6.47;2.20;;;15.70;93.70;;;;;;6855130;28;20523;-80
2022/07/09 05:56:25;;;;;;;6.03;2.22;;;15.80;93.70;;;;;;6858963;28;20444;-77
2022/07/09 05:59:47;;;;;;;5.60;2.30;;;15.90;93.60;;;;;;6858212;28;20451;-79
2022/07/09 06:03:09;;;;;;;6.22;2.22;;;15.90;93.70;;;;;;6859246;28;20443;-78
2022/07/09 06:06:31;;;;;;;7.18;2.22;;;16.00;93.40;;;;;;6860018;28;20435;-77
2022/07/09 06:09:54;;;;;;;5.90;2.40;;;16.10;93.60;;;;;;6858568;28;20814;-80
2022/07/09 06:13:16;;;;;;;6.15;2.30;;;16.10;93.60;;;;;;6859507;28;20469;-78
2022/07/09 06:16:38;;;;;;;9.00;3.15;;;16.20;93.60;;;;;;6858478;28;20495;-77
2022/07/09 06:20:00;;;;;;;6.95;2.60;;;16.30;94.00;;;;;;6859369;28;20436;-79
2022/07/09 06:23:22;;;;;;;6.43;2.40;;;16.40;94.00;;;;;;6857252;28;20471;-80
2022/07/09 06:26:46;;;;;;;7.25;2.40;;;16.40;94.10;;;;;;6859075;28;20518;-79
2022/07/09 06:30:09;;;;;;;5.95;2.50;;;16.40;94.10;;;;;;6857371;28;20443;-80
2022/07/09 06:33:31;;;;;;;5.47;2.30;;;16.40;94.10;;;;;;6858957;28;20436;-78
2022/07/09 06:36:53;;;;;;;6.78;2.38;;;16.50;94.40;;;;;;6860948;28;20574;-76
2022/07/09 06:40:15;;;;;;;7.20;2.35;;;16.60;94.40;;;;;;6863762;28;20506;-77
2022/07/09 06:43:39;;;;;;;6.10;2.13;;;16.70;93.80;;;;;;6868465;28;20605;-76
2022/07/09 06:47:01;;;;;;;6.22;2.22;;;16.80;93.80;;;;;;6879130;28;20468;-77
2022/07/09 06:50:23;;;;;;;4.57;2.03;;;16.90;93.80;;;;;;6874505;28;20445;-79
2022/07/09 06:53:45;;;;;;;6.68;2.38;;;17.00;93.70;;;;;;6891191;28;20469;-78
2022/07/09 06:57:09;;;;;;;5.72;2.17;;;17.10;93.50;;;;;;6890964;28;20504;-80
2022/07/09 07:00:33;;;;;;;5.97;2.03;;;17.20;92.50;;;;;;6886357;28;20435;-79
2022/07/09 07:03:55;;;;;;;7.80;2.00;;;17.20;91.20;;;;;;6837533;29;20923;-79
2022/07/09 07:07:17;;;;;;;6.65;2.00;;;17.30;90.50;;;;;;6837205;29;20436;-79
2022/07/09 07:10:39;;;;;;;6.72;1.90;;;17.40;90.70;;;;;;6837654;29;20464;-78
2022/07/09 07:14:01;;;;;;;7.13;1.95;;;17.40;89.60;;;;;;6837211;29;20444;-79
2022/07/09 07:17:25;;;;;;;5.38;1.90;;;17.40;87.80;;;;;;6861631;28;20454;-80
2022/07/09 07:20:47;;;;;;;7.13;1.85;;;17.50;88.70;;;;;;6869408;28;20559;-79
2022/07/09 07:24:10;;;;;;;6.82;2.00;;;17.50;88.30;;;;;;6890464;28;20430;-77
2022/07/09 07:27:32;;;;;;;6.90;2.17;;;17.60;87.50;;;;;;6890370;28;21160;-78
2022/07/09 07:30:54;;;;;;;6.03;2.20;;;17.70;88.80;;;;;;6872991;28;20952;-78
2022/07/09 07:34:21;;;;;;;6.85;1.98;;;17.70;89.70;;;;;;6873353;28;20827;-79
2022/07/09 07:37:44;;;;;;;7.55;2.30;;;17.90;90.20;;;;;;6863307;28;20447;-78
2022/07/09 07:41:06;;;;;;;5.73;1.70;;;18.10;90.20;;;;;;6863194;28;20432;-77
2022/07/09 07:44:28;;;;;;;6.47;2.10;;;18.30;89.80;;;;;;6862281;28;20450;-79
2022/07/09 07:47:50;;;;;;;5.43;1.87;;;18.50;89.20;;;;;;6888919;28;20524;-79
2022/07/09 07:51:14;;;;;;;6.18;1.92;;;18.50;87.50;;;;;;6876557;28;20925;-79
2022/07/09 07:54:36;;;;;;;7.75;2.03;;;18.50;86.90;;;;;;6862959;28;20439;-79
2022/07/09 07:57:58;;;;;;;5.75;2.00;;;18.60;85.70;;;;;;6861912;28;20914;-80
2022/07/09 08:01:20;;;;;;;7.28;2.10;;;18.70;85.90;;;;;;6862259;28;20432;-79
2022/07/09 08:04:42;;;;;;;8.27;2.03;;;18.80;85.00;;;;;;6862512;28;20435;-79
2022/07/09 08:08:06;;;;;;;5.68;1.60;;;18.90;85.40;;;;;;6861217;28;20472;-78
2022/07/09 08:11:28;;;;;;;4.72;1.70;;;19.00;85.40;;;;;;6861615;28;20488;-80
2022/07/09 08:14:50;;;;;;;5.65;2.00;;;19.10;84.90;;;;;;6862832;28;20440;-79
2022/07/09 08:18:13;;;;;;;5.93;1.90;;;19.10;85.20;;;;;;6862553;28;20970;-77
2022/07/09 08:21:35;;;;;;;4.82;1.90;;;19.30;84.50;;;;;;6861222;28;20988;-80
2022/07/09 08:24:59;;;;;;;5.77;1.90;;;19.40;84.50;;;;;;6861136;28;20492;-77
2022/07/09 08:28:21;;;;;;;6.97;1.98;;;19.40;84.50;;;;;;6861886;28;20432;-77
2022/07/09 08:31:43;;;;;;;6.47;1.80;;;19.50;84.00;;;;;;6862014;28;20432;-79
2022/07/09 08:35:07;;;;;;;5.55;1.70;;;19.60;84.10;;;;;;6861046;28;20436;-77
2022/07/09 08:38:30;;;;;;;5.13;1.70;;;19.70;83.10;;;;;;6884794;28;20463;-78
2022/07/09 08:41:54;;;;;;;4.13;1.52;;;19.80;82.10;;;;;;6888457;28;20525;-79
2022/07/09 08:45:18;;;;;;;7.17;1.53;;;19.80;81.40;;;;;;6888515;28;20466;-80
2022/07/09 08:48:43;;;;;;;6.27;1.80;;;19.90;81.40;;;;;;6884157;28;20454;-79
2022/07/09 08:52:08;;;;;;;7.00;1.70;;;19.90;81.20;;;;;;6888550;28;20490;-79
2022/07/09 08:55:31;;;;;;;6.43;1.88;;;20.00;80.10;;;;;;6883246;28;21043;-79
2022/07/09 08:58:55;;;;;;;6.32;1.60;;;20.00;80.70;;;;;;6859480;28;20494;-79
2022/07/09 09:02:19;;;;;;;6.13;2.00;;;20.00;80.90;;;;;;6861591;28;20494;-78
2022/07/09 09:05:41;;;;;;;6.00;1.50;;;20.20;82.40;;;;;;6860226;28;20997;-79
2022/07/09 09:09:04;;;;;;;7.03;1.60;;;20.30;81.60;;;;;;6863188;28;20500;-79
2022/07/09 09:12:29;;;;;;;5.47;1.70;;;20.30;80.70;;;;;;6860943;28;20454;-77
2022/07/09 09:16:05;;;;;;;4.40;1.30;;;20.40;81.00;;;;;;6860496;28;20440;-79
2022/07/09 09:19:27;;;;;;;4.88;1.30;;;20.50;80.50;;;;;;6860730;28;20481;-79
2022/07/09 09:22:52;;;;;;;9.87;3.60;;;20.50;79.60;;;;;;6860680;28;20442;-78
2022/07/09 09:26:17;;;;;;;6.85;1.83;;;20.60;78.90;;;;;;6887897;28;20801;-79
2022/07/09 09:29:50;;;;;;;4.70;1.52;;;20.60;80.10;;;;;;6876956;28;20480;-79
2022/07/09 09:33:18;;;;;;;6.25;1.55;;;20.50;81.10;;;;;;6860399;28;20471;-79
2022/07/09 09:36:43;;;;;;;4.30;1.25;;;20.60;80.40;;;;;;6858190;28;20443;-78
2022/07/09 09:40:10;;;;;;;5.88;1.60;;;20.60;80.30;;;;;;6861217;28;20585;-79
2022/07/09 09:43:34;;;;;;;3.80;1.30;;;20.60;80.70;;;;;;6887086;28;20434;-79
2022/07/09 09:46:57;;;;;;;4.90;1.40;;;20.80;80.90;;;;;;6887016;28;20438;-80
2022/07/09 09:50:24;;;;;;;6.18;1.40;;;20.90;79.60;;;;;;6864377;28;20485;-79
2022/07/09 09:53:48;;;;;;;4.60;1.30;;;20.90;78.30;;;;;;6860130;28;20913;-79
2022/07/09 09:57:13;;;;;;;4.63;1.13;;;21.00;79.10;;;;;;6860354;28;20440;-79
2022/07/09 10:00:35;;;;;;;4.97;1.23;;;21.10;77.40;;;;;;6857617;28;20671;-80
2022/07/09 10:03:58;;;;;;;4.88;1.35;;;21.20;78.70;;;;;;6860841;28;20438;-80
2022/07/09 10:07:22;;;;;;;5.53;1.30;;;21.20;77.50;;;;;;6861088;28;20436;-80
2022/07/09 10:10:51;;;;;;;4.55;1.30;;;21.30;77.60;;;;;;6859424;28;20471;-80
2022/07/09 10:14:19;;;;;;;4.28;1.10;;;21.30;77.70;;;;;;6859358;28;20478;-78
2022/07/09 10:17:42;;;;;;;3.63;1.20;;;21.30;76.10;;;;;;6859620;28;20475;-78
2022/07/09 10:21:04;;;;;;;3.95;1.10;;;21.40;77.50;;;;;;6886008;28;20890;-78
2022/07/09 10:24:30;;;;;;;4.33;0.90;;;21.50;75.60;;;;;;6864492;28;20444;-79
2022/07/09 10:27:52;;;;;;;4.82;1.10;;;21.50;75.10;;;;;;6858528;28;20487;-79
2022/07/09 10:31:21;;;;;;;3.60;1.00;;;21.60;73.40;;;;;;6858460;28;20935;-79
2022/07/09 10:34:55;;;;;;;4.07;0.90;;;21.50;72.50;;;;;;6860229;28;20447;-79
2022/07/09 10:38:18;;;;;;;2.95;0.80;;;21.60;71.20;;;;;;6861674;28;20933;-79
2022/07/09 10:41:42;;;;;;;3.33;0.80;;;21.80;70.90;;;;;;6874807;28;20474;-80
2022/07/09 10:45:22;;;;;;;2.53;0.80;;;21.80;69.80;;;;;;6859084;28;20541;-80
2022/07/09 10:48:46;;;;;;;2.72;0.70;;;21.90;68.20;;;;;;6871465;28;20523;-80
2022/07/09 10:52:10;;;;;;;2.03;0.60;;;21.90;66.20;;;;;;6837364;28;20515;-79
2022/07/09 10:55:32;;;;;;;1.92;0.65;;;22.00;65.30;;;;;;6858484;28;20440;-79
2022/07/09 10:58:56;;;;;;;2.63;0.87;;;22.10;63.70;;;;;;6856030;28;20539;-79
2022/07/09 11:02:20;;;;;;;3.30;0.80;;;22.00;67.50;;;;;;6835600;28;21263;-79
2022/07/09 11:05:46;;;;;;;3.30;0.80;;;22.20;67.10;;;;;;6855960;28;20446;-79
2022/07/09 11:09:14;;;;;;;2.27;0.60;;;22.20;65.00;;;;;;6867011;28;20452;-77
2022/07/09 11:12:36;;;;;;;2.17;0.77;;;22.30;64.10;;;;;;6856672;28;20492;-79
2022/07/09 11:16:04;;;;;;;2.83;0.80;;;22.30;66.70;;;;;;6855928;28;20465;-81
2022/07/09 11:19:26;;;;;;;2.70;0.80;;;22.40;66.10;;;;;;6856774;28;20473;-79
2022/07/09 11:22:49;;;;;;;22.15;12.48;;;22.60;65.10;;;;;;6860205;28;20478;-79
2022/07/09 11:26:11;;;;;;;6.23;1.60;;;22.70;76.40;;;;;;6861913;28;20488;-79
2022/07/09 11:29:34;;;;;;;4.93;1.80;;;22.80;67.30;;;;;;6863224;28;20577;-80
2022/07/09 11:32:58;;;;;;;4.72;1.50;;;22.80;68.10;;;;;;6861738;28;20443;-79
2022/07/09 11:36:20;;;;;;;5.35;2.22;;;22.90;66.00;;;;;;6866644;28;20440;-80
2022/07/09 11:39:51;;;;;;;5.97;1.08;;;22.90;67.40;;;;;;6860387;28;20500;-79
2022/07/09 11:43:15;;;;;;;4.63;1.27;;;23.00;68.60;;;;;;6868721;28;20934;-80
2022/07/09 11:46:38;;;;;;;6.03;2.20;;;23.20;66.60;;;;;;6863597;28;20599;-79
2022/07/09 11:50:09;;;;;;;4.85;1.83;;;23.20;67.90;;;;;;6862593;28;20514;-79
2022/07/09 11:53:31;;;;;;;5.07;1.50;;;23.30;68.90;;;;;;6848120;28;20488;-78
2022/07/09 11:56:53;;;;;;;4.57;2.03;;;23.50;68.90;;;;;;6863931;28;20467;-78
2022/07/09 12:00:24;;;;;;;6.90;2.72;;;23.60;66.60;;;;;;6862068;28;20447;-79
2022/07/09 12:03:49;;;;;;;3.77;1.60;;;23.70;68.00;;;;;;6861783;28;20448;-80
2022/07/09 12:07:12;;;;;;;6.10;1.37;;;23.80;66.10;;;;;;6872383;28;20778;-78
2022/07/09 12:10:36;;;;;;;4.90;1.17;;;24.00;66.40;;;;;;6854746;28;20494;-80
2022/07/09 12:13:58;;;;;;;4.68;1.30;;;24.20;65.60;;;;;;6866564;28;20440;-76
2022/07/09 12:17:20;;;;;;;4.33;1.30;;;24.20;64.80;;;;;;6865179;28;20918;-77
2022/07/09 12:20:43;;;;;;;5.95;1.30;;;24.20;65.90;;;;;;6878115;28;20447;-75
2022/07/09 12:24:07;;;;;;;4.37;1.30;;;24.10;64.30;;;;;;6878090;28;20494;-77
2022/07/09 12:27:29;;;;;;;5.05;1.20;;;24.20;65.90;;;;;;6866483;28;20451;-77
2022/07/09 12:30:51;;;;;;;4.13;1.25;;;24.20;65.60;;;;;;6860567;28;20471;-80
2022/07/09 12:34:13;;;;;;;2.75;1.20;;;24.20;64.80;;;;;;6860241;28;20443;-79
2022/07/09 12:37:35;;;;;;;4.68;1.25;;;24.20;65.30;;;;;;6879427;28;20482;-79
2022/07/09 12:40:58;;;;;;;4.60;1.20;;;24.40;64.60;;;;;;6860604;28;20488;-79
2022/07/09 12:44:20;;;;;;;4.18;1.30;;;24.70;63.70;;;;;;6861588;28;20487;-79
2022/07/09 12:47:42;;;;;;;3.55;1.20;;;24.70;64.00;;;;;;6862661;28;20466;-78
2022/07/09 12:51:04;;;;;;;4.40;1.23;;;24.80;63.30;;;;;;6859285;28;20440;-79
2022/07/09 12:54:26;;;;;;;5.45;1.55;;;25.00;64.90;;;;;;6860715;28;20885;-79
2022/07/09 12:57:50;;;;;;;4.28;1.30;;;25.10;63.50;;;;;;6861450;28;20447;-82
2022/07/09 13:01:12;;;;;;;3.80;1.40;;;24.90;64.80;;;;;;6861408;28;20432;-79
2022/07/09 13:04:35;;;;;;;3.85;1.10;;;24.80;66.60;;;;;;6861506;28;20431;-79
2022/07/09 13:07:57;;;;;;;4.72;1.20;;;24.80;65.00;;;;;;6862197;28;20482;-79
2022/07/09 13:11:19;;;;;;;4.38;1.20;;;25.00;63.40;;;;;;6861113;28;20439;-80
2022/07/09 13:14:42;;;;;;;6.30;2.13;;;25.40;64.20;;;;;;6861152;28;20440;-78
2022/07/09 13:18:04;;;;;;;4.43;1.60;;;25.40;62.00;;;;;;6860681;28;20450;-79
2022/07/09 13:21:26;;;;;;;4.60;1.50;;;25.50;63.30;;;;;;6860574;28;20439;-78
2022/07/09 13:24:48;;;;;;;4.25;1.30;;;25.50;62.40;;;;;;6860559;28;20474;-76
2022/07/09 13:28:10;;;;;;;5.72;1.35;;;25.60;61.60;;;;;;6861683;28;20847;-75
2022/07/09 13:31:34;;;;;;;3.65;1.20;;;25.80;61.10;;;;;;6860674;28;20483;-78
2022/07/09 13:34:56;;;;;;;4.38;1.38;;;25.80;60.50;;;;;;6859141;28;20922;-76
2022/07/09 13:38:19;;;;;;;5.70;1.20;;;25.80;61.20;;;;;;6863573;28;20484;-77
2022/07/09 13:41:40;;;;;;;2.92;1.10;;;25.70;60.10;;;;;;6859647;28;20467;-78
2022/07/09 13:45:03;;;;;;;4.13;1.17;;;25.60;59.20;;;;;;6858444;28;20479;-79
2022/07/09 13:48:27;;;;;;;6.72;2.65;;;25.60;60.30;;;;;;6860198;28;20535;-79
2022/07/09 13:51:49;;;;;;;4.43;1.40;;;25.90;60.20;;;;;;6858241;28;20443;-79
2022/07/09 13:55:12;;;;;;;6.32;1.20;;;26.10;60.90;;;;;;6859969;28;20941;-75
2022/07/09 13:58:34;;;;;;;2.95;1.10;;;26.30;59.50;;;;;;6859837;28;20455;-78
2022/07/09 14:01:57;;;;;;;3.70;1.10;;;26.40;59.10;;;;;;6859819;28;20802;-76
2022/07/09 14:05:21;;;;;;;3.80;1.25;;;26.50;59.20;;;;;;6856959;28;20432;-78
2022/07/09 14:08:43;;;;;;;3.77;1.13;;;26.60;58.80;;;;;;6860922;28;20465;-79
2022/07/09 14:12:05;;;;;;;5.03;1.20;;;26.80;59.40;;;;;;6859324;28;20483;-79
2022/07/09 14:15:27;;;;;;;4.68;1.30;;;26.90;59.20;;;;;;6855919;28;20969;-79
2022/07/09 14:18:49;;;;;;;4.60;1.20;;;26.90;60.40;;;;;;6860563;28;20483;-78
2022/07/09 14:22:14;;;;;;;3.03;1.00;;;26.80;59.30;;;;;;6857594;28;20443;-79
2022/07/09 14:25:36;;;;;;;3.70;1.10;;;26.90;58.40;;;;;;6875309;28;20441;-79
2022/07/09 14:28:58;;;;;;;3.10;1.10;;;26.60;58.30;;;;;;6857304;28;20440;-80
2022/07/09 14:32:21;;;;;;;3.42;0.90;;;26.40;57.80;;;;;;6862700;28;20495;-78
2022/07/09 14:35:43;;;;;;;3.05;1.02;;;26.30;58.00;;;;;;6858660;28;20515;-79
2022/07/09 14:39:06;;;;;;;3.20;1.10;;;26.40;58.60;;;;;;6859927;28;20502;-78
2022/07/09 14:42:28;;;;;;;3.25;1.05;;;26.50;58.60;;;;;;6859946;28;20929;-79
2022/07/09 14:45:50;;;;;;;4.10;1.15;;;26.70;58.60;;;;;;6859770;28;20435;-78
2022/07/09 14:49:12;;;;;;;2.70;1.08;;;26.70;58.70;;;;;;6860781;28;20486;-78
2022/07/09 14:52:35;;;;;;;6.43;3.87;;;26.50;58.60;;;;;;6859829;28;20886;-78
2022/07/09 14:55:59;;;;;;;3.20;1.10;;;26.50;57.70;;;;;;6860037;28;20531;-77
2022/07/09 14:59:21;;;;;;;3.03;1.17;;;26.60;58.30;;;;;;6865234;28;20451;-78
2022/07/09 15:02:43;;;;;;;3.47;1.10;;;26.60;57.70;;;;;;6865173;28;20436;-80
2022/07/09 15:06:06;;;;;;;4.07;1.20;;;26.40;58.80;;;;;;6865717;28;20435;-77
2022/07/09 15:09:28;;;;;;;2.97;1.00;;;26.40;59.60;;;;;;6864527;28;20466;-79
2022/07/09 15:12:51;;;;;;;3.28;1.20;;;26.40;58.40;;;;;;6864174;28;20443;-78
2022/07/09 15:16:13;;;;;;;3.90;1.10;;;26.50;57.20;;;;;;6864135;28;20436;-78
2022/07/09 15:19:36;;;;;;;3.13;1.00;;;27.10;57.80;;;;;;6864288;28;20451;-79
2022/07/09 15:22:59;;;;;;;3.15;1.00;;;26.90;56.70;;;;;;6864238;28;20918;-79
2022/07/09 15:26:21;;;;;;;4.18;1.10;;;27.00;58.90;;;;;;6864064;28;21054;-80
2022/07/09 15:29:45;;;;;;;3.87;1.10;;;27.10;59.00;;;;;;6864576;28;20728;-76
2022/07/09 15:33:08;;;;;;;4.43;1.15;;;27.40;58.60;;;;;;6864696;28;20445;-77
2022/07/09 15:36:31;;;;;;;3.08;1.05;;;27.80;58.60;;;;;;6863840;28;20466;-79
2022/07/09 15:39:53;;;;;;;3.92;1.00;;;28.10;58.60;;;;;;6864280;28;20448;-80
2022/07/09 15:43:15;;;;;;;4.03;1.02;;;28.40;57.10;;;;;;6864120;28;20435;-76
2022/07/09 15:46:39;;;;;;;3.05;0.90;;;28.60;56.10;;;;;;6864641;28;20476;-79
2022/07/09 15:50:01;;;;;;;3.00;1.00;;;28.70;54.60;;;;;;6865895;28;20436;-79
2022/07/09 15:53:23;;;;;;;3.15;1.00;;;28.40;53.00;;;;;;6818751;28;20443;-77
2022/07/09 15:56:46;;;;;;;3.70;1.10;;;28.20;54.30;;;;;;6819186;28;20450;-77
2022/07/09 16:00:12;;;;;;;3.90;1.00;;;27.90;55.00;;;;;;6842752;28;20449;-78
2022/07/09 16:03:35;;;;;;;2.72;1.10;;;27.90;55.20;;;;;;6822555;28;20465;-79
2022/07/09 16:06:57;;;;;;;3.53;1.13;;;28.30;53.50;;;;;;6815022;28;20474;-78
2022/07/09 16:10:19;;;;;;;3.67;1.40;;;28.60;53.80;;;;;;6831025;28;20473;-79
2022/07/09 16:13:40;;;;;;;4.57;1.23;;;28.20;54.80;;;;;;6835059;28;20450;-78
2022/07/09 16:17:02;;;;;;;3.70;1.30;;;28.20;54.90;;;;;;6811560;28;20452;-77
2022/07/09 16:20:27;;;;;;;3.55;1.20;;;28.30;54.30;;;;;;6830998;28;20540;-79
2022/07/09 16:23:49;;;;;;;5.45;1.73;;;28.30;55.30;;;;;;6816873;29;20452;-78
2022/07/09 16:27:11;;;;;;;3.97;1.53;;;28.20;53.70;;;;;;6812316;28;20485;-78
2022/07/09 16:30:33;;;;;;;2.78;1.20;;;27.80;54.90;;;;;;6811811;29;20485;-79
2022/07/09 16:33:55;;;;;;;3.45;1.02;;;27.60;56.10;;;;;;6811883;28;20442;-79
2022/07/09 16:37:19;;;;;;;2.72;1.10;;;27.30;55.90;;;;;;6833135;29;20544;-77
2022/07/09 16:40:41;;;;;;;4.03;1.40;;;27.10;57.30;;;;;;6834442;28;20938;-80
2022/07/09 16:44:04;;;;;;;4.57;1.90;;;27.10;57.70;;;;;;6825757;29;20449;-78
2022/07/09 16:47:26;;;;;;;3.90;1.30;;;27.10;57.50;;;;;;6843392;28;21227;-79
2022/07/09 16:50:48;;;;;;;4.45;1.40;;;27.10;57.20;;;;;;6855845;28;20440;-78
2022/07/09 16:54:11;;;;;;;4.88;1.55;;;27.00;57.50;;;;;;6857875;28;20447;-77
2022/07/09 16:57:33;;;;;;;4.60;1.40;;;26.90;57.80;;;;;;6858134;28;20467;-78
2022/07/09 17:00:55;;;;;;;6.05;1.58;;;26.70;58.90;;;;;;6856018;28;20454;-78
2022/07/09 17:04:18;;;;;;;3.85;1.52;;;26.60;58.30;;;;;;6858332;28;20476;-79
2022/07/09 17:07:40;;;;;;;4.47;1.45;;;26.50;58.80;;;;;;6858392;28;20436;-79
2022/07/09 17:11:03;;;;;;;4.53;1.45;;;26.50;58.50;;;;;;6860723;28;20476;-78
2022/07/09 17:14:26;;;;;;;4.07;1.45;;;26.50;58.10;;;;;;6856898;28;20446;-77
2022/07/09 17:17:48;;;;;;;5.97;1.60;;;26.40;57.90;;;;;;6857825;28;20786;-77
2022/07/09 17:21:10;;;;;;;4.35;1.55;;;26.40;58.80;;;;;;6857518;28;20494;-79
2022/07/09 17:24:33;;;;;;;4.55;1.40;;;26.20;59.20;;;;;;6856581;28;20918;-78
2022/07/09 17:27:56;;;;;;;7.63;4.07;;;26.20;59.80;;;;;;6856193;28;20487;-76
2022/07/09 17:31:18;;;;;;;5.30;2.70;;;26.20;60.00;;;;;;6856371;28;20475;-77
2022/07/09 17:34:40;;;;;;;4.00;1.60;;;26.20;59.90;;;;;;6856780;28;20451;-77
2022/07/09 17:38:02;;;;;;;4.20;1.40;;;26.20;59.80;;;;;;6866514;28;20432;-79